Double Springs, Alabama
Current Conditions -  °F | °C
As of 8:56 AM on Sunday 21 Dec 2014 (Local Time) from K1M4 Reporting Station
Overcast Overcast  
Wind Chill: 29°   Ceiling: 400
Heat Index: 35°   Visibility: 8mi
Dew Point: 33°   Wind: 7mph
Humidity: 92%   Direction: 90°E
Pressure: 30.2"   Gusts: NA
Location:  34.15°N, 87.4°W
Report Text: K1M4 211456Z AUTO 09006KT 8SM OVC004 02/01 A3020 RMK AO2 58001 T00160005 SLP237 $
Loading
Personal Weather Stations






























Interactive Weather Map New forecast layout! Learn more

10-Day Weather Forecast

Advertisements
Track Severe Weather on mobile